Portada
METAR-TAF:

METAR-TAF

Aeroports :

Casals, França

latitud: 44-32N, longitud: 001-08W, altitud: 25 m

Observació

L'informe es va fer fa 16 minuts, a les 10:00 UTC
Vent 5 kt del Sud-Est
Temperatura 8°C
Humitat 93%
Pressió 1021 hPa
Visibilitat 10 km o més

METAR: LFBC 241000Z AUTO 13005KT 9999 // NSC 08/07 Q1021

Hora: 11:16 (10:16 UTC)

Pronòstic

L'informe es va fer fa 2 hores i 16 minuts, a les 08:00 UTC
Pronòstic vàlid del 24 a les 09 UTC al 25 a les 09 UTC
Vent 3 kt del Est/Sud-Est
Visibilitat 10 km o més
sense núvols per sota de 1500 mi sense presència de cumulonimbus.
Evolucionant progressivament
l' 24 a les 20 UTC al 24 a les 22 UTC
Visibilitat: 0500 m
boira
Evolucionant progressivament
l' 25 a les 01 UTC al 25 a les 03 UTC
Visibilitat: 1500 m
Cel cobert a una alçada de 200 ft
boirina

TAF: LFBC 240800Z 2409/2509 12003KT CAVOK BECMG 2420/2422 0500 FG BECMG 2501/2503 1500 BR OVC002

Observacions i pronòstics meteorològics de més de 4000 aeroports (METAR i TAF).

Les estacions disponibles són els punts grocs i vermells al mapa.

Posi el ratolí al punt desitjat per veure el nom de l'estació.

Feu clic per veure les observacions i els pronòstics meteorològics.

Per canviar el mapa: feu clic els botons verds amb una creu de color negre per apropar; al botó verd amb un guió per allunyar la imatge; o en les fletxes verdes per a mapes adjacents.


METAR-TAF: